sensor_id;sensor_type;location;lat;lon;timestamp;P1;durP1;ratioP1;P2;durP2;ratioP2
79533;SDS011;68982;52.160;6.736;2023-05-20T00:00:09;11.70;;;6.03;;
79533;SDS011;68982;52.160;6.736;2023-05-20T00:02:35;11.88;;;5.90;;
79533;SDS011;68982;52.160;6.736;2023-05-20T00:05:01;11.25;;;5.78;;
79533;SDS011;68982;52.160;6.736;2023-05-20T00:07:26;7.78;;;4.82;;
79533;SDS011;68982;52.160;6.736;2023-05-20T00:09:52;9.32;;;4.45;;
79533;SDS011;68982;52.160;6.736;2023-05-20T00:12:17;7.28;;;4.43;;
79533;SDS011;68982;52.160;6.736;2023-05-20T00:14:42;9.85;;;4.75;;
79533;SDS011;68982;52.160;6.736;2023-05-20T00:17:08;7.35;;;5.10;;
79533;SDS011;68982;52.160;6.736;2023-05-20T00:19:33;8.80;;;4.45;;
79533;SDS011;68982;52.160;6.736;2023-05-20T00:21:58;8.68;;;5.05;;
79533;SDS011;68982;52.160;6.736;2023-05-20T00:24:24;8.48;;;5.20;;
79533;SDS011;68982;52.160;6.736;2023-05-20T00:26:49;9.75;;;4.95;;
79533;SDS011;68982;52.160;6.736;2023-05-20T00:29:15;11.68;;;5.50;;
79533;SDS011;68982;52.160;6.736;2023-05-20T00:31:40;7.43;;;4.67;;
79533;SDS011;68982;52.160;6.736;2023-05-20T00:34:06;7.65;;;3.90;;
79533;SDS011;68982;52.160;6.736;2023-05-20T00:36:32;8.75;;;4.70;;
79533;SDS011;68982;52.160;6.736;2023-05-20T00:38:57;5.70;;;3.70;;
79533;SDS011;68982;52.160;6.736;2023-05-20T00:41:23;10.38;;;4.15;;
79533;SDS011;68982;52.160;6.736;2023-05-20T00:43:51;7.60;;;3.47;;
79533;SDS011;68982;52.160;6.736;2023-05-20T00:46:17;7.57;;;4.22;;
79533;SDS011;68982;52.160;6.736;2023-05-20T00:48:43;10.07;;;4.05;;
79533;SDS011;68982;52.160;6.736;2023-05-20T00:51:12;6.15;;;3.45;;
79533;SDS011;68982;52.160;6.736;2023-05-20T00:53:38;11.73;;;4.15;;
79533;SDS011;68982;52.160;6.736;2023-05-20T00:56:04;6.15;;;3.67;;
79533;SDS011;68982;52.160;6.736;2023-05-20T00:58:30;10.55;;;4.55;;
79533;SDS011;68982;52.160;6.736;2023-05-20T01:00:56;5.60;;;3.72;;
79533;SDS011;68982;52.160;6.736;2023-05-20T01:03:22;7.18;;;3.60;;
79533;SDS011;68982;52.160;6.736;2023-05-20T01:05:47;7.18;;;3.13;;
79533;SDS011;68982;52.160;6.736;2023-05-20T01:08:13;7.05;;;3.83;;
79533;SDS011;68982;52.160;6.736;2023-05-20T01:10:40;6.53;;;4.18;;
79533;SDS011;68982;52.160;6.736;2023-05-20T01:13:10;7.05;;;3.58;;
79533;SDS011;68982;52.160;6.736;2023-05-20T01:15:39;8.63;;;3.85;;
79533;SDS011;68982;52.160;6.736;2023-05-20T01:18:04;5.90;;;3.83;;
79533;SDS011;68982;52.160;6.736;2023-05-20T01:20:34;9.27;;;3.53;;
79533;SDS011;68982;52.160;6.736;2023-05-20T01:23:01;8.60;;;3.38;;
79533;SDS011;68982;52.160;6.736;2023-05-20T01:25:28;7.90;;;3.72;;
79533;SDS011;68982;52.160;6.736;2023-05-20T01:27:54;5.57;;;4.28;;
79533;SDS011;68982;52.160;6.736;2023-05-20T01:30:21;8.98;;;3.90;;
79533;SDS011;68982;52.160;6.736;2023-05-20T01:32:52;7.03;;;3.58;;
79533;SDS011;68982;52.160;6.736;2023-05-20T01:35:22;8.80;;;3.42;;
79533;SDS011;68982;52.160;6.736;2023-05-20T01:37:48;6.50;;;3.17;;
79533;SDS011;68982;52.160;6.736;2023-05-20T01:40:16;7.45;;;4.72;;
79533;SDS011;68982;52.160;6.736;2023-05-20T01:42:43;5.95;;;2.63;;
79533;SDS011;68982;52.160;6.736;2023-05-20T01:45:10;8.27;;;3.33;;
79533;SDS011;68982;52.160;6.736;2023-05-20T01:47:35;5.72;;;3.50;;
79533;SDS011;68982;52.160;6.736;2023-05-20T01:50:01;5.37;;;3.20;;
79533;SDS011;68982;52.160;6.736;2023-05-20T01:52:26;5.75;;;3.40;;
79533;SDS011;68982;52.160;6.736;2023-05-20T01:54:51;5.35;;;3.50;;
79533;SDS011;68982;52.160;6.736;2023-05-20T01:57:17;5.60;;;3.20;;
79533;SDS011;68982;52.160;6.736;2023-05-20T01:59:46;5.75;;;3.20;;
79533;SDS011;68982;52.160;6.736;2023-05-20T02:02:11;6.50;;;3.00;;
79533;SDS011;68982;52.160;6.736;2023-05-20T02:04:41;6.60;;;3.58;;
79533;SDS011;68982;52.160;6.736;2023-05-20T02:07:08;6.20;;;3.30;;
79533;SDS011;68982;52.160;6.736;2023-05-20T02:09:33;5.28;;;3.05;;
79533;SDS011;68982;52.160;6.736;2023-05-20T02:11:58;7.55;;;3.25;;
79533;SDS011;68982;52.160;6.736;2023-05-20T02:14:24;6.32;;;3.22;;
79533;SDS011;68982;52.160;6.736;2023-05-20T02:16:49;4.95;;;2.67;;
79533;SDS011;68982;52.160;6.736;2023-05-20T02:19:14;6.00;;;3.30;;
79533;SDS011;68982;52.160;6.736;2023-05-20T02:21:47;3.70;;;2.42;;
79533;SDS011;68982;52.160;6.736;2023-05-20T02:24:13;5.75;;;3.33;;
79533;SDS011;68982;52.160;6.736;2023-05-20T02:26:38;8.00;;;3.15;;
79533;SDS011;68982;52.160;6.736;2023-05-20T02:29:03;5.05;;;3.28;;
79533;SDS011;68982;52.160;6.736;2023-05-20T02:31:29;5.53;;;3.22;;
79533;SDS011;68982;52.160;6.736;2023-05-20T02:33:54;4.20;;;2.63;;
79533;SDS011;68982;52.160;6.736;2023-05-20T02:36:19;3.83;;;2.60;;
79533;SDS011;68982;52.160;6.736;2023-05-20T02:38:45;6.68;;;3.47;;
79533;SDS011;68982;52.160;6.736;2023-05-20T02:41:10;4.60;;;3.05;;
79533;SDS011;68982;52.160;6.736;2023-05-20T02:43:35;6.35;;;2.88;;
79533;SDS011;68982;52.160;6.736;2023-05-20T02:46:01;5.18;;;3.08;;
79533;SDS011;68982;52.160;6.736;2023-05-20T02:48:27;5.40;;;2.95;;
79533;SDS011;68982;52.160;6.736;2023-05-20T02:50:53;5.68;;;3.42;;
79533;SDS011;68982;52.160;6.736;2023-05-20T02:53:18;4.85;;;2.80;;
79533;SDS011;68982;52.160;6.736;2023-05-20T02:55:44;6.28;;;3.25;;
79533;SDS011;68982;52.160;6.736;2023-05-20T02:58:11;3.85;;;3.08;;
79533;SDS011;68982;52.160;6.736;2023-05-20T03:00:37;4.35;;;2.80;;
79533;SDS011;68982;52.160;6.736;2023-05-20T03:03:04;5.15;;;2.53;;
79533;SDS011;68982;52.160;6.736;2023-05-20T03:05:31;8.27;;;3.33;;
79533;SDS011;68982;52.160;6.736;2023-05-20T03:07:57;3.50;;;2.78;;
79533;SDS011;68982;52.160;6.736;2023-05-20T03:10:22;6.93;;;2.95;;
79533;SDS011;68982;52.160;6.736;2023-05-20T03:12:48;6.32;;;3.08;;
79533;SDS011;68982;52.160;6.736;2023-05-20T03:15:13;4.93;;;2.70;;
79533;SDS011;68982;52.160;6.736;2023-05-20T03:17:38;3.25;;;2.38;;
79533;SDS011;68982;52.160;6.736;2023-05-20T03:20:04;5.28;;;2.65;;
79533;SDS011;68982;52.160;6.736;2023-05-20T03:22:31;5.97;;;3.00;;
79533;SDS011;68982;52.160;6.736;2023-05-20T03:24:56;4.78;;;3.15;;
79533;SDS011;68982;52.160;6.736;2023-05-20T03:29:50;3.97;;;2.75;;
79533;SDS011;68982;52.160;6.736;2023-05-20T03:32:19;6.75;;;2.95;;
79533;SDS011;68982;52.160;6.736;2023-05-20T03:34:44;5.57;;;2.92;;
79533;SDS011;68982;52.160;6.736;2023-05-20T03:37:10;4.85;;;3.00;;
79533;SDS011;68982;52.160;6.736;2023-05-20T03:39:35;4.22;;;2.88;;
79533;SDS011;68982;52.160;6.736;2023-05-20T03:42:00;4.60;;;2.47;;
79533;SDS011;68982;52.160;6.736;2023-05-20T03:44:26;4.80;;;2.87;;
79533;SDS011;68982;52.160;6.736;2023-05-20T03:46:51;6.35;;;3.35;;
79533;SDS011;68982;52.160;6.736;2023-05-20T03:49:16;4.60;;;2.90;;
79533;SDS011;68982;52.160;6.736;2023-05-20T03:51:42;6.28;;;3.30;;
79533;SDS011;68982;52.160;6.736;2023-05-20T03:54:07;5.63;;;2.80;;
79533;SDS011;68982;52.160;6.736;2023-05-20T03:56:32;4.68;;;2.75;;
79533;SDS011;68982;52.160;6.736;2023-05-20T03:58:58;3.90;;;3.20;;
79533;SDS011;68982;52.160;6.736;2023-05-20T04:01:23;3.63;;;2.53;;
79533;SDS011;68982;52.160;6.736;2023-05-20T04:03:49;6.38;;;3.00;;
79533;SDS011;68982;52.160;6.736;2023-05-20T04:06:15;4.97;;;2.67;;
79533;SDS011;68982;52.160;6.736;2023-05-20T04:08:40;3.38;;;2.35;;
79533;SDS011;68982;52.160;6.736;2023-05-20T04:11:06;3.50;;;2.33;;
79533;SDS011;68982;52.160;6.736;2023-05-20T04:13:31;7.10;;;2.83;;
79533;SDS011;68982;52.160;6.736;2023-05-20T04:15:57;2.90;;;2.22;;
79533;SDS011;68982;52.160;6.736;2023-05-20T04:18:24;3.33;;;1.95;;
79533;SDS011;68982;52.160;6.736;2023-05-20T04:20:52;5.78;;;2.28;;
79533;SDS011;68982;52.160;6.736;2023-05-20T04:23:20;4.45;;;2.75;;
79533;SDS011;68982;52.160;6.736;2023-05-20T04:25:45;4.20;;;2.20;;
79533;SDS011;68982;52.160;6.736;2023-05-20T04:28:11;6.65;;;2.70;;
79533;SDS011;68982;52.160;6.736;2023-05-20T04:30:38;4.47;;;2.85;;
79533;SDS011;68982;52.160;6.736;2023-05-20T04:33:03;3.65;;;2.35;;
79533;SDS011;68982;52.160;6.736;2023-05-20T04:35:28;6.60;;;2.60;;
79533;SDS011;68982;52.160;6.736;2023-05-20T04:37:54;5.43;;;2.90;;
79533;SDS011;68982;52.160;6.736;2023-05-20T04:40:20;4.25;;;2.45;;
79533;SDS011;68982;52.160;6.736;2023-05-20T04:42:45;6.45;;;2.53;;
79533;SDS011;68982;52.160;6.736;2023-05-20T04:45:11;5.15;;;2.80;;
79533;SDS011;68982;52.160;6.736;2023-05-20T04:47:37;4.57;;;2.50;;
79533;SDS011;68982;52.160;6.736;2023-05-20T04:50:06;5.45;;;3.10;;
79533;SDS011;68982;52.160;6.736;2023-05-20T04:52:35;6.20;;;3.47;;
79533;SDS011;68982;52.160;6.736;2023-05-20T04:55:01;4.75;;;2.78;;
79533;SDS011;68982;52.160;6.736;2023-05-20T04:57:27;4.72;;;2.08;;
79533;SDS011;68982;52.160;6.736;2023-05-20T04:59:52;5.85;;;2.78;;
79533;SDS011;68982;52.160;6.736;2023-05-20T05:02:22;6.15;;;2.63;;
79533;SDS011;68982;52.160;6.736;2023-05-20T05:04:48;4.85;;;2.63;;
79533;SDS011;68982;52.160;6.736;2023-05-20T05:07:13;5.73;;;2.60;;
79533;SDS011;68982;52.160;6.736;2023-05-20T05:09:38;3.87;;;3.07;;
79533;SDS011;68982;52.160;6.736;2023-05-20T05:12:04;4.53;;;2.78;;
79533;SDS011;68982;52.160;6.736;2023-05-20T05:14:29;4.68;;;2.10;;
79533;SDS011;68982;52.160;6.736;2023-05-20T05:16:55;2.77;;;2.20;;
79533;SDS011;68982;52.160;6.736;2023-05-20T05:19:20;4.20;;;2.50;;
79533;SDS011;68982;52.160;6.736;2023-05-20T05:21:46;4.07;;;3.20;;
79533;SDS011;68982;52.160;6.736;2023-05-20T05:24:12;7.20;;;2.63;;
79533;SDS011;68982;52.160;6.736;2023-05-20T05:26:37;4.63;;;2.55;;
79533;SDS011;68982;52.160;6.736;2023-05-20T05:29:03;3.40;;;2.17;;
79533;SDS011;68982;52.160;6.736;2023-05-20T05:31:28;7.40;;;2.67;;
79533;SDS011;68982;52.160;6.736;2023-05-20T05:33:53;4.82;;;2.20;;
79533;SDS011;68982;52.160;6.736;2023-05-20T05:36:19;3.00;;;2.00;;
79533;SDS011;68982;52.160;6.736;2023-05-20T05:38:44;3.70;;;2.10;;
79533;SDS011;68982;52.160;6.736;2023-05-20T05:41:09;4.77;;;2.13;;
79533;SDS011;68982;52.160;6.736;2023-05-20T05:43:35;4.80;;;2.60;;
79533;SDS011;68982;52.160;6.736;2023-05-20T05:46:00;3.72;;;2.50;;
79533;SDS011;68982;52.160;6.736;2023-05-20T05:48:26;5.80;;;2.42;;
79533;SDS011;68982;52.160;6.736;2023-05-20T05:50:51;5.10;;;2.30;;
79533;SDS011;68982;52.160;6.736;2023-05-20T05:53:16;3.00;;;2.10;;
79533;SDS011;68982;52.160;6.736;2023-05-20T05:55:42;4.22;;;2.40;;
79533;SDS011;68982;52.160;6.736;2023-05-20T05:58:07;5.05;;;2.63;;
79533;SDS011;68982;52.160;6.736;2023-05-20T06:00:33;3.58;;;2.38;;
79533;SDS011;68982;52.160;6.736;2023-05-20T06:02:58;3.10;;;2.15;;
79533;SDS011;68982;52.160;6.736;2023-05-20T06:05:23;3.80;;;2.28;;
79533;SDS011;68982;52.160;6.736;2023-05-20T06:07:49;3.83;;;2.65;;
79533;SDS011;68982;52.160;6.736;2023-05-20T06:10:14;5.03;;;2.85;;
79533;SDS011;68982;52.160;6.736;2023-05-20T06:12:40;6.85;;;2.15;;
79533;SDS011;68982;52.160;6.736;2023-05-20T06:15:05;7.43;;;2.80;;
79533;SDS011;68982;52.160;6.736;2023-05-20T06:17:31;3.28;;;2.13;;
79533;SDS011;68982;52.160;6.736;2023-05-20T06:19:57;5.43;;;2.75;;
79533;SDS011;68982;52.160;6.736;2023-05-20T06:22:22;3.17;;;2.45;;
79533;SDS011;68982;52.160;6.736;2023-05-20T06:24:47;4.00;;;2.25;;
79533;SDS011;68982;52.160;6.736;2023-05-20T06:27:13;3.27;;;2.27;;
79533;SDS011;68982;52.160;6.736;2023-05-20T06:29:38;6.83;;;2.90;;
79533;SDS011;68982;52.160;6.736;2023-05-20T06:32:04;3.75;;;2.45;;
79533;SDS011;68982;52.160;6.736;2023-05-20T06:34:29;4.53;;;2.25;;
79533;SDS011;68982;52.160;6.736;2023-05-20T06:36:55;4.25;;;2.78;;
79533;SDS011;68982;52.160;6.736;2023-05-20T06:39:20;4.33;;;3.20;;
79533;SDS011;68982;52.160;6.736;2023-05-20T06:41:45;5.65;;;3.08;;
79533;SDS011;68982;52.160;6.736;2023-05-20T06:44:11;4.72;;;3.00;;
79533;SDS011;68982;52.160;6.736;2023-05-20T06:46:36;6.53;;;2.85;;
79533;SDS011;68982;52.160;6.736;2023-05-20T06:49:02;4.47;;;2.80;;
79533;SDS011;68982;52.160;6.736;2023-05-20T06:51:27;4.47;;;2.75;;
79533;SDS011;68982;52.160;6.736;2023-05-20T06:53:53;4.43;;;2.97;;
79533;SDS011;68982;52.160;6.736;2023-05-20T06:56:18;4.95;;;3.08;;
79533;SDS011;68982;52.160;6.736;2023-05-20T06:58:44;5.63;;;3.00;;
79533;SDS011;68982;52.160;6.736;2023-05-20T07:01:09;5.68;;;3.15;;
79533;SDS011;68982;52.160;6.736;2023-05-20T07:03:34;4.53;;;3.22;;
79533;SDS011;68982;52.160;6.736;2023-05-20T07:06:00;4.57;;;3.08;;
79533;SDS011;68982;52.160;6.736;2023-05-20T07:08:25;7.30;;;3.30;;
79533;SDS011;68982;52.160;6.736;2023-05-20T07:10:51;5.13;;;3.20;;
79533;SDS011;68982;52.160;6.736;2023-05-20T07:13:16;5.13;;;2.65;;
79533;SDS011;68982;52.160;6.736;2023-05-20T07:15:45;5.15;;;3.30;;
79533;SDS011;68982;52.160;6.736;2023-05-20T07:18:10;5.70;;;3.42;;
79533;SDS011;68982;52.160;6.736;2023-05-20T07:20:35;4.07;;;2.70;;
79533;SDS011;68982;52.160;6.736;2023-05-20T07:23:01;6.30;;;3.20;;
79533;SDS011;68982;52.160;6.736;2023-05-20T07:25:28;4.63;;;3.03;;
79533;SDS011;68982;52.160;6.736;2023-05-20T07:27:53;4.35;;;3.20;;
79533;SDS011;68982;52.160;6.736;2023-05-20T07:30:18;4.13;;;2.85;;
79533;SDS011;68982;52.160;6.736;2023-05-20T07:32:44;4.50;;;2.72;;
79533;SDS011;68982;52.160;6.736;2023-05-20T07:35:09;5.10;;;2.90;;
79533;SDS011;68982;52.160;6.736;2023-05-20T07:37:34;5.78;;;3.17;;
79533;SDS011;68982;52.160;6.736;2023-05-20T07:40:00;4.68;;;2.83;;
79533;SDS011;68982;52.160;6.736;2023-05-20T07:42:25;4.10;;;3.07;;
79533;SDS011;68982;52.160;6.736;2023-05-20T07:44:50;3.60;;;2.50;;
79533;SDS011;68982;52.160;6.736;2023-05-20T07:47:16;3.77;;;2.70;;
79533;SDS011;68982;52.160;6.736;2023-05-20T07:49:41;5.22;;;2.63;;
79533;SDS011;68982;52.160;6.736;2023-05-20T07:52:08;6.45;;;2.75;;
79533;SDS011;68982;52.160;6.736;2023-05-20T07:54:33;5.20;;;2.50;;
79533;SDS011;68982;52.160;6.736;2023-05-20T07:56:59;4.97;;;2.65;;
79533;SDS011;68982;52.160;6.736;2023-05-20T07:59:25;4.72;;;3.47;;
79533;SDS011;68982;52.160;6.736;2023-05-20T08:01:50;3.58;;;2.67;;
79533;SDS011;68982;52.160;6.736;2023-05-20T08:04:15;5.05;;;2.45;;
79533;SDS011;68982;52.160;6.736;2023-05-20T08:06:41;6.32;;;2.50;;
79533;SDS011;68982;52.160;6.736;2023-05-20T08:09:08;4.82;;;2.67;;
79533;SDS011;68982;52.160;6.736;2023-05-20T08:11:34;5.78;;;2.30;;
79533;SDS011;68982;52.160;6.736;2023-05-20T08:13:59;4.93;;;2.22;;
79533;SDS011;68982;52.160;6.736;2023-05-20T08:16:26;3.13;;;2.30;;
79533;SDS011;68982;52.160;6.736;2023-05-20T08:18:51;4.22;;;2.67;;
79533;SDS011;68982;52.160;6.736;2023-05-20T08:21:16;5.00;;;2.50;;
79533;SDS011;68982;52.160;6.736;2023-05-20T08:23:42;6.57;;;2.55;;
79533;SDS011;68982;52.160;6.736;2023-05-20T08:26:07;5.88;;;2.63;;
79533;SDS011;68982;52.160;6.736;2023-05-20T08:28:33;4.30;;;2.35;;
79533;SDS011;68982;52.160;6.736;2023-05-20T08:31:00;6.32;;;2.17;;
79533;SDS011;68982;52.160;6.736;2023-05-20T08:33:26;4.38;;;2.42;;
79533;SDS011;68982;52.160;6.736;2023-05-20T08:35:51;3.55;;;2.47;;
79533;SDS011;68982;52.160;6.736;2023-05-20T08:38:16;4.87;;;2.53;;
79533;SDS011;68982;52.160;6.736;2023-05-20T08:40:42;5.32;;;2.47;;
79533;SDS011;68982;52.160;6.736;2023-05-20T08:43:07;7.90;;;2.55;;
79533;SDS011;68982;52.160;6.736;2023-05-20T08:45:33;8.27;;;2.20;;
79533;SDS011;68982;52.160;6.736;2023-05-20T08:48:02;9.45;;;2.75;;
79533;SDS011;68982;52.160;6.736;2023-05-20T08:50:31;6.32;;;2.63;;
79533;SDS011;68982;52.160;6.736;2023-05-20T08:52:57;11.23;;;3.33;;
79533;SDS011;68982;52.160;6.736;2023-05-20T08:55:24;6.35;;;2.90;;
79533;SDS011;68982;52.160;6.736;2023-05-20T08:57:54;3.30;;;2.10;;
79533;SDS011;68982;52.160;6.736;2023-05-20T09:00:20;5.20;;;2.67;;
79533;SDS011;68982;52.160;6.736;2023-05-20T09:02:51;3.63;;;2.45;;
79533;SDS011;68982;52.160;6.736;2023-05-20T09:05:17;3.88;;;2.17;;
79533;SDS011;68982;52.160;6.736;2023-05-20T09:07:43;7.88;;;2.30;;
79533;SDS011;68982;52.160;6.736;2023-05-20T09:10:08;5.10;;;2.58;;
79533;SDS011;68982;52.160;6.736;2023-05-20T09:12:34;4.45;;;2.42;;
79533;SDS011;68982;52.160;6.736;2023-05-20T09:15:00;7.63;;;2.40;;
79533;SDS011;68982;52.160;6.736;2023-05-20T09:17:25;3.25;;;1.98;;
79533;SDS011;68982;52.160;6.736;2023-05-20T09:19:54;4.88;;;1.85;;
79533;SDS011;68982;52.160;6.736;2023-05-20T09:22:26;5.05;;;2.70;;
79533;SDS011;68982;52.160;6.736;2023-05-20T09:24:52;10.90;;;4.63;;
79533;SDS011;68982;52.160;6.736;2023-05-20T09:27:18;5.40;;;2.42;;
79533;SDS011;68982;52.160;6.736;2023-05-20T09:29:46;4.03;;;2.28;;
79533;SDS011;68982;52.160;6.736;2023-05-20T09:32:12;5.13;;;1.88;;
79533;SDS011;68982;52.160;6.736;2023-05-20T09:34:38;2.85;;;1.98;;
79533;SDS011;68982;52.160;6.736;2023-05-20T09:37:05;3.53;;;2.13;;
79533;SDS011;68982;52.160;6.736;2023-05-20T09:39:32;3.05;;;2.03;;
79533;SDS011;68982;52.160;6.736;2023-05-20T09:42:06;2.58;;;1.80;;
79533;SDS011;68982;52.160;6.736;2023-05-20T09:44:40;3.35;;;1.85;;
79533;SDS011;68982;52.160;6.736;2023-05-20T09:47:06;7.35;;;2.28;;
79533;SDS011;68982;52.160;6.736;2023-05-20T09:49:33;3.13;;;1.73;;
79533;SDS011;68982;52.160;6.736;2023-05-20T09:52:01;3.40;;;1.75;;
79533;SDS011;68982;52.160;6.736;2023-05-20T09:54:27;3.35;;;1.85;;
79533;SDS011;68982;52.160;6.736;2023-05-20T09:56:54;5.57;;;1.85;;
79533;SDS011;68982;52.160;6.736;2023-05-20T09:59:21;4.40;;;1.75;;
79533;SDS011;68982;52.160;6.736;2023-05-20T10:01:48;4.28;;;1.83;;
79533;SDS011;68982;52.160;6.736;2023-05-20T10:04:14;3.40;;;1.90;;
79533;SDS011;68982;52.160;6.736;2023-05-20T10:09:57;3.65;;;1.80;;
79533;SDS011;68982;52.160;6.736;2023-05-20T10:12:33;4.53;;;1.83;;
79533;SDS011;68982;52.160;6.736;2023-05-20T10:20:58;8.40;;;2.72;;
79533;SDS011;68982;52.160;6.736;2023-05-20T10:23:26;4.43;;;1.83;;
79533;SDS011;68982;52.160;6.736;2023-05-20T10:25:53;3.72;;;2.00;;
79533;SDS011;68982;52.160;6.736;2023-05-20T10:28:29;4.03;;;2.13;;
79533;SDS011;68982;52.160;6.736;2023-05-20T10:30:57;5.82;;;1.73;;
79533;SDS011;68982;52.160;6.736;2023-05-20T10:33:24;3.40;;;1.83;;
79533;SDS011;68982;52.160;6.736;2023-05-20T10:35:51;6.43;;;2.25;;
79533;SDS011;68982;52.160;6.736;2023-05-20T10:38:17;3.75;;;1.85;;
79533;SDS011;68982;52.160;6.736;2023-05-20T10:40:42;3.28;;;1.60;;
79533;SDS011;68982;52.160;6.736;2023-05-20T10:43:11;4.93;;;2.00;;
79533;SDS011;68982;52.160;6.736;2023-05-20T10:45:48;2.75;;;1.80;;
79533;SDS011;68982;52.160;6.736;2023-05-20T10:50:50;2.65;;;2.08;;
79533;SDS011;68982;52.160;6.736;2023-05-20T10:53:20;3.15;;;2.00;;
79533;SDS011;68982;52.160;6.736;2023-05-20T10:55:48;5.68;;;1.70;;
79533;SDS011;68982;52.160;6.736;2023-05-20T10:58:18;4.30;;;1.95;;
79533;SDS011;68982;52.160;6.736;2023-05-20T11:00:46;3.28;;;1.70;;
79533;SDS011;68982;52.160;6.736;2023-05-20T11:03:13;3.03;;;1.85;;
79533;SDS011;68982;52.160;6.736;2023-05-20T11:05:39;4.75;;;1.70;;
79533;SDS011;68982;52.160;6.736;2023-05-20T11:08:06;4.70;;;1.95;;
79533;SDS011;68982;52.160;6.736;2023-05-20T11:10:32;2.42;;;1.70;;
79533;SDS011;68982;52.160;6.736;2023-05-20T11:13:02;2.50;;;1.65;;
79533;SDS011;68982;52.160;6.736;2023-05-20T11:15:28;4.47;;;1.90;;
79533;SDS011;68982;52.160;6.736;2023-05-20T11:17:56;5.28;;;1.83;;
79533;SDS011;68982;52.160;6.736;2023-05-20T11:20:23;4.72;;;2.20;;
79533;SDS011;68982;52.160;6.736;2023-05-20T11:22:49;5.03;;;2.22;;
79533;SDS011;68982;52.160;6.736;2023-05-20T11:25:16;3.60;;;2.25;;
79533;SDS011;68982;52.160;6.736;2023-05-20T11:27:42;2.67;;;1.75;;
79533;SDS011;68982;52.160;6.736;2023-05-20T11:30:08;4.20;;;2.15;;
79533;SDS011;68982;52.160;6.736;2023-05-20T11:32:36;3.60;;;2.00;;
79533;SDS011;68982;52.160;6.736;2023-05-20T11:35:01;3.53;;;1.80;;
79533;SDS011;68982;52.160;6.736;2023-05-20T11:37:28;3.95;;;2.13;;
79533;SDS011;68982;52.160;6.736;2023-05-20T11:40:06;2.72;;;1.80;;
79533;SDS011;68982;52.160;6.736;2023-05-20T11:42:33;9.32;;;1.95;;
79533;SDS011;68982;52.160;6.736;2023-05-20T11:44:59;4.88;;;2.03;;
79533;SDS011;68982;52.160;6.736;2023-05-20T11:47:25;2.90;;;1.90;;
79533;SDS011;68982;52.160;6.736;2023-05-20T11:49:54;3.88;;;1.80;;
79533;SDS011;68982;52.160;6.736;2023-05-20T11:54:54;3.88;;;1.80;;
79533;SDS011;68982;52.160;6.736;2023-05-20T11:57:20;4.82;;;1.58;;
79533;SDS011;68982;52.160;6.736;2023-05-20T11:59:47;5.10;;;1.90;;
79533;SDS011;68982;52.160;6.736;2023-05-20T12:02:13;4.25;;;1.70;;
79533;SDS011;68982;52.160;6.736;2023-05-20T12:04:38;5.10;;;1.58;;
79533;SDS011;68982;52.160;6.736;2023-05-20T12:07:04;3.80;;;1.93;;
79533;SDS011;68982;52.160;6.736;2023-05-20T12:09:33;4.55;;;1.40;;
79533;SDS011;68982;52.160;6.736;2023-05-20T12:11:58;4.38;;;1.63;;
79533;SDS011;68982;52.160;6.736;2023-05-20T12:14:24;3.88;;;1.77;;
79533;SDS011;68982;52.160;6.736;2023-05-20T12:16:49;4.37;;;2.00;;
79533;SDS011;68982;52.160;6.736;2023-05-20T12:19:14;3.58;;;2.20;;
79533;SDS011;68982;52.160;6.736;2023-05-20T12:21:40;3.45;;;1.80;;
79533;SDS011;68982;52.160;6.736;2023-05-20T12:24:05;3.47;;;1.80;;
79533;SDS011;68982;52.160;6.736;2023-05-20T12:26:32;4.47;;;1.75;;
79533;SDS011;68982;52.160;6.736;2023-05-20T12:28:59;4.13;;;1.83;;
79533;SDS011;68982;52.160;6.736;2023-05-20T12:31:24;4.53;;;1.80;;
79533;SDS011;68982;52.160;6.736;2023-05-20T12:33:50;3.60;;;1.90;;
79533;SDS011;68982;52.160;6.736;2023-05-20T12:36:15;3.78;;;1.60;;
79533;SDS011;68982;52.160;6.736;2023-05-20T12:38:40;5.05;;;1.77;;
79533;SDS011;68982;52.160;6.736;2023-05-20T12:41:06;3.90;;;1.63;;
79533;SDS011;68982;52.160;6.736;2023-05-20T12:43:31;2.63;;;1.40;;
79533;SDS011;68982;52.160;6.736;2023-05-20T12:45:57;8.32;;;1.60;;
79533;SDS011;68982;52.160;6.736;2023-05-20T12:48:22;3.28;;;1.60;;
79533;SDS011;68982;52.160;6.736;2023-05-20T12:50:47;3.30;;;1.37;;
79533;SDS011;68982;52.160;6.736;2023-05-20T12:53:13;5.50;;;1.63;;
79533;SDS011;68982;52.160;6.736;2023-05-20T12:55:38;6.32;;;1.73;;
79533;SDS011;68982;52.160;6.736;2023-05-20T12:58:04;2.40;;;1.65;;
79533;SDS011;68982;52.160;6.736;2023-05-20T13:00:32;5.20;;;1.90;;
79533;SDS011;68982;52.160;6.736;2023-05-20T13:02:58;2.72;;;1.55;;
79533;SDS011;68982;52.160;6.736;2023-05-20T13:05:23;4.30;;;1.67;;
79533;SDS011;68982;52.160;6.736;2023-05-20T13:07:48;3.80;;;1.60;;
79533;SDS011;68982;52.160;6.736;2023-05-20T13:10:14;2.70;;;1.50;;
79533;SDS011;68982;52.160;6.736;2023-05-20T13:12:41;3.28;;;1.60;;
79533;SDS011;68982;52.160;6.736;2023-05-20T13:15:09;7.35;;;1.80;;
79533;SDS011;68982;52.160;6.736;2023-05-20T13:17:35;3.85;;;1.75;;
79533;SDS011;68982;52.160;6.736;2023-05-20T13:20:02;4.32;;;2.10;;
79533;SDS011;68982;52.160;6.736;2023-05-20T13:22:28;2.47;;;1.40;;
79533;SDS011;68982;52.160;6.736;2023-05-20T13:24:53;2.70;;;1.33;;
79533;SDS011;68982;52.160;6.736;2023-05-20T13:27:19;3.10;;;2.10;;
79533;SDS011;68982;52.160;6.736;2023-05-20T13:29:44;2.10;;;1.35;;
79533;SDS011;68982;52.160;6.736;2023-05-20T13:32:10;4.07;;;1.42;;
79533;SDS011;68982;52.160;6.736;2023-05-20T13:34:35;2.03;;;1.42;;
79533;SDS011;68982;52.160;6.736;2023-05-20T13:37:01;2.53;;;1.70;;
79533;SDS011;68982;52.160;6.736;2023-05-20T13:39:26;2.67;;;1.60;;
79533;SDS011;68982;52.160;6.736;2023-05-20T13:41:52;4.50;;;1.52;;
79533;SDS011;68982;52.160;6.736;2023-05-20T13:44:19;4.40;;;1.63;;
79533;SDS011;68982;52.160;6.736;2023-05-20T13:46:44;1.90;;;1.42;;
79533;SDS011;68982;52.160;6.736;2023-05-20T13:49:09;3.25;;;1.70;;
79533;SDS011;68982;52.160;6.736;2023-05-20T13:51:35;2.72;;;1.90;;
79533;SDS011;68982;52.160;6.736;2023-05-20T13:54:00;3.00;;;1.50;;
79533;SDS011;68982;52.160;6.736;2023-05-20T13:56:26;2.03;;;1.50;;
79533;SDS011;68982;52.160;6.736;2023-05-20T13:58:52;3.00;;;1.30;;
79533;SDS011;68982;52.160;6.736;2023-05-20T14:01:17;7.65;;;1.65;;
79533;SDS011;68982;52.160;6.736;2023-05-20T14:03:43;2.22;;;1.63;;
79533;SDS011;68982;52.160;6.736;2023-05-20T14:06:08;5.05;;;1.40;;
79533;SDS011;68982;52.160;6.736;2023-05-20T14:08:34;4.88;;;1.42;;
79533;SDS011;68982;52.160;6.736;2023-05-20T14:10:59;2.00;;;1.52;;
79533;SDS011;68982;52.160;6.736;2023-05-20T14:13:24;4.10;;;2.75;;
79533;SDS011;68982;52.160;6.736;2023-05-20T14:15:50;5.47;;;3.63;;
79533;SDS011;68982;52.160;6.736;2023-05-20T14:18:16;3.30;;;2.33;;
79533;SDS011;68982;52.160;6.736;2023-05-20T14:20:43;7.72;;;5.40;;
79533;SDS011;68982;52.160;6.736;2023-05-20T14:23:09;6.22;;;4.35;;
79533;SDS011;68982;52.160;6.736;2023-05-20T14:25:35;3.20;;;2.60;;
79533;SDS011;68982;52.160;6.736;2023-05-20T14:28:00;5.50;;;3.47;;
79533;SDS011;68982;52.160;6.736;2023-05-20T14:30:26;3.00;;;2.50;;
79533;SDS011;68982;52.160;6.736;2023-05-20T14:32:51;3.15;;;2.85;;
79533;SDS011;68982;52.160;6.736;2023-05-20T14:35:16;3.90;;;2.58;;
79533;SDS011;68982;52.160;6.736;2023-05-20T14:37:42;7.90;;;2.90;;
79533;SDS011;68982;52.160;6.736;2023-05-20T14:40:08;3.75;;;2.65;;
79533;SDS011;68982;52.160;6.736;2023-05-20T14:42:34;3.17;;;1.95;;
79533;SDS011;68982;52.160;6.736;2023-05-20T14:45:00;3.58;;;2.75;;
79533;SDS011;68982;52.160;6.736;2023-05-20T14:47:25;2.95;;;1.67;;
79533;SDS011;68982;52.160;6.736;2023-05-20T14:49:50;4.05;;;2.10;;
79533;SDS011;68982;52.160;6.736;2023-05-20T14:52:16;3.95;;;2.30;;
79533;SDS011;68982;52.160;6.736;2023-05-20T14:54:42;3.40;;;2.03;;
79533;SDS011;68982;52.160;6.736;2023-05-20T14:57:08;4.32;;;2.03;;